Weather at Krynice Kolonia

Public forecast

Using degrees Celsius for public forecast. Weather courtesy of forecast.io.

Closest aviation weather report (METAR) to Krynice Kolonia

Report is more than 6 hours old.

Closest report is Hrodna Airport, 42.4 nm (78.6 km) ENE.

2024/07/22 14:00 (retrieved 9 hours ago)

UMMG 221400Z 32002MPS 9999 SCT040 29/09 Q1010 NOSIG

Closest aviation forecast (TAF) to Krynice Kolonia

Closest forecast is Modlin Airport, 98.6 nm (182.6 km) WSW.

2024/07/22 18:00 (retrieved 5 hours ago)

TAF EPMO 221730Z 2218/2318 29010KT CAVOK TEMPO 2218/2301 -SHRA SCT055TCU PROB30 TEMPO 2218/2224 29020G30KT 4000 SHRA BKN040CB PROB40 2300/2307 -RA SCT006 BKN010